Loisir ou Compétition : Rejoignez un Club de la Fédération

Résultats

SAMSE NATIONAL TOUR FFS 3

LES CONFINS

KO-QLF Dames

Jury de Compétition

Délégué Technique :
ROGUET JEAN CLAUDE (MB)
D.T. Adjoint :
FROSSARD CHRISTIAN (SA)
Dir. Epreuve :
 

Caractéristiques de la Piste

Piste :
 
Distance :
1,1 km
Point Haut :
 
Point Bas :
 
Montée Tot. :
 
Montée Max. :
 
Homologation :
 

Pénalité Appliquée :
5.0000
Coefficient :
 

Catégorie :
U18->SEN
Style :
 
Clt Dos Clt/Cat Code An Nom Prénom Com Club Temps Ecart Points
Classés
1 102 1/U20 FFS2638587 1996 CLAUDEL DELPHINE MV LA BRESSAUDE 2:56.74 00.00 5.00
2 101 1/SEN FFS1341311 1990 BUILLET MARION SA CS SAISIES 3:00.45 03.71 30.19
3 104 2/SEN FFS2266678 1991 COLIN MARION SA CS LA FECLAZ 3:06.66 09.92 72.35
4 108 1/U18 FFS2632250 1998 DUCORDEAU JULIETTE DA CS VILLARD 3:06.99 10.25 74.59
5 103 3/SEN FFS2626761 1993 GODIN MARIE CAROLINE MJ BOIS D'AMONT 3:07.90 11.16 80.77
6 107 2/U18 FFS2649041 1998 QUINTIN LENA MB SC GD BORNAN 3:10.50 13.76 98.43
7 105 2/U20 FFS2638906 1997 GIRAUD LAURIE AP ES VALLOUISE 3:10.65 13.91 99.44
8 131 3/U18 FFS2627940 1999 FORTAS FANNY DA CS VILLARD 3:11.15 14.41 102.84
9 125 4/U18 FFS2644183 1998 PELLEGRIN LISA AP SC QUEYRAS 3:12.06 15.32 109.02
10 118 5/U18 FFS2655078 1999 DOLCI FLORA AP AS EDELWEISS 3:12.87 16.13 114.52
11 114 3/U20 FFS2615767 1997 BOVAGNE LINA MB CS MEGEVE 3:13.11 16.37 116.15
12 132 6/U18 FFS2637567 1999 SIMONNEAU SOLEA DA SA MEAUDRAIS 3:14.08 17.34 122.73
13 106 4/SEN FFS2617672 1994 CHOPARD LALLIER CELINE MJ VAL MORTEAU 3:15.03 18.29 129.18
14 138 7/U18 FFS2668542 1999 MARTINET EVA MJ US GIRON 3:15.07 18.33 129.45
15 110 4/U20 FFS2637859 1996 BENTZ CORALIE MB VILLARD/BOEG 3:15.73 18.99 133.94
16 113 5/U20 FFS2626100 1997 LOCATELLI EVA DA SA MEAUDRAIS 3:16.33 19.59 138.01
17 128 8/U18 FFS2667438 1999 GAL MELISSA MB SCNP ROCHOIS 3:16.64 19.90 140.11
18 126 9/U18 FFS2650090 1998 PAULY ELOISE DA SNB CHAMROUS 3:17.24 20.50 144.19
19 134 10/U18 FFS2648341 1999 COLIN LUCIE MJ SC GRANDVAUX 3:18.24 21.50 150.98
20 117 11/U18 FFS2649316 1998 VULLIET SOLENE MB SCNP ROCHOIS 3:18.56 21.82 153.15
20 141 11/U18 FFS2643373 1999 BARTHELEMY ANOUK DA VERCORS SKF 3:18.56 21.82 153.15
22 133 13/U18 FFS2644726 1999 RICHON LOUISE SA CS LA FECLAZ 3:19.09 22.35 156.75
23 120 6/U20 FFS2638878 1997 FLOCHON LAURIE SA CS LA FECLAZ 3:19.18 22.44 157.36
24 137 7/U20 FFS2649305 1997 SANDOZ OTHENIN JUSTINE MJ AS VERRIERES 3:20.56 23.82 166.73
25 119 8/U20 FFS2643697 1996 ZAMBAUX LEA MJ OLYMP MT DOR 3:21.37 24.63 172.23
26 109 5/SEN FFS2613018 1994 DEMANGEAT RACHEL SA CS LA FECLAZ 3:23.66 26.92 187.78
27 122 14/U18 FFS2644377 1998 CHENAL CLEMENCE SA SC PEISEY VA 3:25.91 29.17 203.05
28 135 15/U18 FFS2654813 1999 MISSILLIER LOUISE MB SC GD BORNAN 3:26.31 29.57 205.77
29 116 16/U18 FFS2649037 1998 PIERREL MARGAUX MB SC GD BORNAN 3:26.59 29.85 207.67
30 112 9/U20 FFS2638907 1997 GROS CECILE AP ES VALLOUISE 3:27.91 31.17 216.63
31 129 10/U20 FFS2647377 1996 LAURENCE CLEMENTINE MJ CSR PONTARLI 3:28.38 31.64 219.82
32 142 17/U18 FFS2654811 1999 MARJOLLET AMELIE MB SC GD BORNAN 3:30.70 33.96 235.58
33 136 18/U18 FFS2649507 1998 LAMBERT JENNIFER SA CS LA FECLAZ 3:31.49 34.75 240.94
34 139 19/U18 FFS2660862 1999 LOUIS JACQUET KIMA MJ AS VERRIERES 3:31.63 34.89 241.89
35 124 11/U20 FFS2654516 1996 TOURNAY FANNY SA CS LA FECLAZ 3:31.91 35.17 243.79
36 121 6/SEN FFS2624800 1995 TARDY NOEMIE SA CS LA FECLAZ 3:32.21 35.47 245.83
37 123 12/U20 FFS2652903 1997 SALVI LAURA MJ A.S MOUTHE 3:32.65 35.91 248.82
38 127 13/U20 FFS2628759 1997 LYAUDET MARGOT LY US CORMARANC 3:33.49 36.75 254.52
39 143 20/U18 FFS2661568 1999 SAILLET MARIE MB DRAGONS ANNY 3:35.63 38.89 269.05
40 111 14/U20 FFS2643743 1997 BASTARD ROSSET ISALINE MB SC GD BORNAN 3:39.09 42.35 292.54
41 130 21/U18 FFS2649036 1998 PESSEY LOTUS MB SC GD BORNAN 3:42.58 45.84 316.24
42 115 15/U20 FFS2639197 1997 CHABRE MANON AP GAP-BAYARD 3:42.71 45.97 317.12
43 140 22/U18 FFS2649045 1998 MISSILLIER LEA MB SC GD BORNAN 3:47.20 50.46 347.60